FW4533 Waynesville GA US current weather conditions

sailwx.info

Wind from 108 at 2 knots gusting 6

Air temperature 22.8° C
Dewpoint 13.8° C

Last reported at 2020-Jan-18 19:07 UTC.
Time now 2020-Jan-18 20:09 UTC

Location: N 31°14' W 081°48'.
View on Google Maps.

See reports from other nearby stations

  
Tides and Currents Weather Stations Pressure Air Temp Water Temp Dewpoint Dewpoint Depression Visibility Wind Speed Wind Dir Waves Ship Positions
date/time (UTC)wind fromknots sea level pressurealtimeterstation pressurevisibilityair tempwater tempwave heightnotes
2020-Jan-18 19:07 108 2 gusting 6 22.8
2020-Jan-18 19:02 199 4 gusting 6 23.3
2020-Jan-18 18:57 146 5 gusting 8 23.3
2020-Jan-18 18:52 170 2 gusting 6 23.3
2020-Jan-18 18:47 161 6 gusting 8 23.3
2020-Jan-18 18:42 142 4 gusting 6 22.8
2020-Jan-18 18:37 134 2 gusting 5 23.3
2020-Jan-18 18:32 161 2 gusting 5 22.2
2020-Jan-18 18:27 145 5 gusting 8 22.2
2020-Jan-18 18:22 113 4 gusting 8 22.2
2020-Jan-18 18:17 112 2 gusting 5 22.8
2020-Jan-18 18:12 084 6 gusting 7 22.2
2020-Jan-18 18:07 121 5 gusting 7 22.2
2020-Jan-18 18:02 112 3 gusting 7 22.2
2020-Jan-18 17:57 112 6 gusting 8 22.2
2020-Jan-18 17:52 112 5 gusting 7 22.2
2020-Jan-18 17:47 100 5 gusting 6 21.7
2020-Jan-18 17:42 112 2 gusting 6 21.1
2020-Jan-18 17:37 157 3 gusting 6 21.7
2020-Jan-18 17:32 179 1 gusting 5 21.1
2020-Jan-18 17:27 202 2 gusting 4 21.1
2020-Jan-18 17:22 112 4 gusting 5 21.7
2020-Jan-18 17:17 112 1 gusting 5 21.1
2020-Jan-18 17:12 112 3 gusting 5 21.7
2020-Jan-18 17:07 201 1 gusting 1 21.1
2020-Jan-18 17:02 112 2 gusting 5 20.0
2020-Jan-18 16:57 112 4 gusting 6 20.6
2020-Jan-18 16:52 180 1 gusting 4 20.0
2020-Jan-18 16:47 170 2 gusting 5 19.4
2020-Jan-18 16:42 112 3 gusting 5 19.4
2020-Jan-18 16:37 112 2 gusting 4 18.3
2020-Jan-18 16:32 161 2 gusting 5 18.3
2020-Jan-18 16:27 065 2 gusting 5 18.3
2020-Jan-18 16:22 056 2 gusting 2 17.8
2020-Jan-18 16:17 082 2 gusting 2 17.8
2020-Jan-18 16:12 090 2 gusting 5 17.8
2020-Jan-18 16:07 125 1 gusting 2 17.2
2020-Jan-18 16:02 073 1 gusting 2 17.2
2020-Jan-18 15:57 100 1 gusting 2 16.1
2020-Jan-18 15:52 129 1 gusting 2 16.1
2020-Jan-18 15:47 282 1 gusting 1 16.1
2020-Jan-18 15:42 121 2 gusting 2 15.6
2020-Jan-18 15:37 099 2 gusting 4 15.0
2020-Jan-18 15:32 107 1 gusting 1 15.0
2020-Jan-18 15:27 069 1 gusting 4 14.4
2020-Jan-18 15:22 090 1 gusting 4 13.9
2020-Jan-18 15:17 112 2 gusting 2 13.9
2020-Jan-18 15:12 104 0 gusting 2 13.9
2020-Jan-18 15:07 085 0 gusting 2 13.3
2020-Jan-18 15:02 235 2 gusting 4 12.2
2020-Jan-18 14:57 099 1 gusting 4 12.8
2020-Jan-18 14:52 112 2 gusting 2 12.2
2020-Jan-18 14:47 112 2 gusting 2 12.2
2020-Jan-18 14:42 041 1 gusting 1 11.7
2020-Jan-18 14:37 319 1 gusting 2 11.1
2020-Jan-18 14:32 191 1 gusting 4 10.6
2020-Jan-18 14:27 292 1 gusting 1 10.6
2020-Jan-18 14:22 008 1 gusting 1 10.0
2020-Jan-18 14:17 307 1 gusting 2 10.0
2020-Jan-18 14:12 042 1 gusting 2 10.0
2020-Jan-18 14:07 250 1 gusting 2 9.4
2020-Jan-18 14:02 046 1 gusting 1 9.4
2020-Jan-18 13:57 273 0 gusting 1 9.4
2020-Jan-18 13:52 229 0 gusting 2 9.4
2020-Jan-18 13:47 125 1 gusting 2 8.9
2020-Jan-18 13:42 088 0 gusting 2 8.9
2020-Jan-18 13:37 065 0 gusting 1 8.9
2020-Jan-18 13:32 040 8.3
2020-Jan-18 13:27 110 8.3
2020-Jan-18 13:22 117 1 gusting 1 7.8
2020-Jan-18 13:17 123 7.8
2020-Jan-18 13:12 180 7.2
2020-Jan-18 13:07 140 6.7
2020-Jan-18 13:02 296 6.7
2020-Jan-18 12:57 206 6.7
2020-Jan-18 12:52 044 0 gusting 1 6.7
2020-Jan-18 12:47 253 6.7
2020-Jan-18 12:42 233 6.1
2020-Jan-18 12:37 214 6.1
2020-Jan-18 12:32 297 6.1
2020-Jan-18 12:27 200 6.1
2020-Jan-18 12:22 125 6.1
2020-Jan-18 12:17 153 6.1
2020-Jan-18 12:12 208 0 gusting 1 6.1
2020-Jan-18 12:07 163 6.1
2020-Jan-18 12:02 110 6.7
2020-Jan-18 11:57 061 6.7
2020-Jan-18 11:52 219 6.7
2020-Jan-18 11:47 210 0 gusting 2 6.7
2020-Jan-18 11:42 157 6.7
2020-Jan-18 11:37 025 0 gusting 1 6.7
2020-Jan-18 11:32 110 0 gusting 1 6.7
2020-Jan-18 11:27 133 0 gusting 1 6.7
2020-Jan-18 11:22 172 0 gusting 1 6.7
2020-Jan-18 11:17 161 6.7
2020-Jan-18 11:12 113 6.7
2020-Jan-18 11:07 191 6.7
2020-Jan-18 11:02 092 6.7
2020-Jan-18 10:57 344 6.7
2020-Jan-18 10:52 039 0 gusting 2 6.7
2020-Jan-18 10:47 143 6.7
2020-Jan-18 10:42 254 6.7
2020-Jan-18 10:37 206 6.7
2020-Jan-18 10:32 131 6.7
2020-Jan-18 10:27 262 0 gusting 2 6.7
2020-Jan-18 10:22 061 6.7
2020-Jan-18 10:17 020 6.7
2020-Jan-18 10:12 078 7.2
2020-Jan-18 10:07 021 0 gusting 1 7.2
2020-Jan-18 10:02 240 0 gusting 0 7.2
2020-Jan-18 09:57 059 1 gusting 2 7.2
2020-Jan-18 09:52 222 7.2
2020-Jan-18 09:47 139 7.2
2020-Jan-18 09:42 133 7.2
2020-Jan-18 09:37 125 7.2
2020-Jan-18 09:32 287 1 gusting 2 7.2
2020-Jan-18 09:27 152 0 gusting 2 7.2
2020-Jan-18 09:22 023 0 gusting 1 7.2
2020-Jan-18 09:17 032 7.2
2020-Jan-18 09:12 233 7.2
2020-Jan-18 09:07 218 7.2
2020-Jan-18 09:02 289 7.2
2020-Jan-18 08:57 175 7.8
2020-Jan-18 08:52 204 7.8
2020-Jan-18 08:47 064 7.8
2020-Jan-18 08:42 299 7.8
2020-Jan-18 08:37 283 7.8
2020-Jan-18 08:32 160 7.8
2020-Jan-18 08:27 283 7.8
2020-Jan-18 08:22 129 7.8
2020-Jan-18 08:17 049 7.8
2020-Jan-18 08:12 081 7.8
2020-Jan-18 08:07 171 7.8
2020-Jan-18 08:02 112 8.3
2020-Jan-18 07:57 177 8.3
2020-Jan-18 07:52 136 8.3
2020-Jan-18 07:47 129 8.3
2020-Jan-18 07:42 180 8.3
2020-Jan-18 07:37 192 8.3
2020-Jan-18 07:32 206 8.3
2020-Jan-18 07:27 096 8.3
2020-Jan-18 07:22 100 8.3
2020-Jan-18 07:17 163 8.9
2020-Jan-18 07:12 244 8.9
2020-Jan-18 07:07 105 8.9
2020-Jan-18 07:02 343 8.9
2020-Jan-18 06:57 133 9.4
2020-Jan-18 06:52 105 9.4
2020-Jan-18 06:47 206 9.4
2020-Jan-18 06:42 125 9.4
2020-Jan-18 06:37 023 9.4
2020-Jan-18 06:32 310 10.0
2020-Jan-18 06:27 112 10.0
2020-Jan-18 06:22 107 0 gusting 1 10.0
2020-Jan-18 06:17 072 10.0
2020-Jan-18 06:12 068 0 gusting 1 10.0
2020-Jan-18 06:07 087 10.0
2020-Jan-18 06:02 107 1 gusting 2 10.0
2020-Jan-18 05:57 292 1 gusting 2 10.0
2020-Jan-18 05:52 130 1 gusting 1 10.0
2020-Jan-18 05:47 034 0 gusting 1 10.0
2020-Jan-18 05:42 101 10.0
2020-Jan-18 05:37 069 1 gusting 2 10.0
2020-Jan-18 05:32 035 1 gusting 1 10.0
2020-Jan-18 05:27 109 1 gusting 5 10.0
2020-Jan-18 05:22 102 1 gusting 2 10.0
2020-Jan-18 05:17 098 10.0
2020-Jan-18 05:12 097 2 gusting 4 10.6
2020-Jan-18 05:08 074 1 gusting 2 10.6
2020-Jan-18 05:02 104 2 gusting 5 10.6
2020-Jan-18 04:57 043 3 gusting 6 10.0
2020-Jan-18 04:52 017 2 gusting 4 10.0
2020-Jan-18 04:47 112 2 gusting 5 10.0
2020-Jan-18 04:42 116 0 gusting 4 10.0
2020-Jan-18 04:37 061 1 gusting 4 10.0
2020-Jan-18 04:32 270 2 gusting 5 10.0
2020-Jan-18 04:27 101 2 gusting 5 10.0
2020-Jan-18 04:22 063 2 gusting 4 10.0
2020-Jan-18 04:17 088 1 gusting 4 10.0
2020-Jan-18 04:12 093 2 gusting 5 10.0
2020-Jan-18 04:07 045 2 gusting 5 10.0
2020-Jan-18 04:02 065 2 gusting 5 10.0
2020-Jan-18 03:57 096 2 gusting 5 10.0
2020-Jan-18 03:52 097 0 gusting 4 10.0
2020-Jan-18 03:47 331 2 gusting 4 10.0
2020-Jan-18 03:42 015 2 gusting 4 10.0
2020-Jan-18 03:37 105 2 gusting 4 10.0
2020-Jan-18 03:32 103 2 gusting 5 10.0
2020-Jan-18 03:27 031 2 gusting 5 10.0
2020-Jan-18 03:22 090 2 gusting 4 10.0
2020-Jan-18 03:17 092 1 gusting 4 10.0
2020-Jan-18 03:12 178 1 gusting 4 10.0
2020-Jan-18 03:07 086 2 gusting 5 10.0
2020-Jan-18 03:02 090 1 gusting 2 10.0
2020-Jan-18 02:57 090 2 gusting 5 10.0
2020-Jan-18 02:52 102 3 gusting 5 10.0
2020-Jan-18 02:47 090 2 gusting 5 10.0
2020-Jan-18 02:42 091 2 gusting 5 10.0
2020-Jan-18 02:37 130 4 gusting 6 10.0
2020-Jan-18 02:32 022 2 gusting 4 10.0
2020-Jan-18 02:27 094 1 gusting 5 10.0
2020-Jan-18 02:22 165 2 gusting 5 10.0
2020-Jan-18 02:17 036 4 gusting 5 10.0
2020-Jan-18 02:12 110 3 gusting 7 10.0
2020-Jan-18 02:07 055 2 gusting 7 10.0
2020-Jan-18 02:02 355 2 gusting 5 10.0
2020-Jan-18 01:57 112 1 gusting 5 10.0
2020-Jan-18 01:52 126 1 gusting 2 10.0
2020-Jan-18 01:47 103 2 gusting 4 10.0
2020-Jan-18 01:42 083 1 gusting 4 10.0
2020-Jan-18 01:37 110 2 gusting 4 10.0
2020-Jan-18 01:32 110 4 gusting 5 10.0
2020-Jan-18 01:27 154 1 gusting 4 10.6
2020-Jan-18 01:22 112 2 gusting 4 10.6
2020-Jan-18 01:17 067 2 gusting 5 10.6
2020-Jan-18 01:12 058 1 gusting 4 10.6
2020-Jan-18 01:07 073 2 gusting 6 10.6
2020-Jan-18 01:02 128 1 gusting 5 10.6
2020-Jan-18 00:57 046 2 gusting 6 10.6
2020-Jan-18 00:52 146 2 gusting 5 10.6
2020-Jan-18 00:47 103 3 gusting 6 10.6
2020-Jan-18 00:42 103 2 gusting 5 10.6
2020-Jan-18 00:37 088 2 gusting 6 10.0
2020-Jan-18 00:32 124 1 gusting 5 10.0
2020-Jan-18 00:27 092 3 gusting 5 10.0
2020-Jan-18 00:22 078 1 gusting 4 10.0
2020-Jan-18 00:17 099 2 gusting 5 10.0
2020-Jan-18 00:12 084 1 gusting 5 10.0
2020-Jan-18 00:07 101 1 gusting 5 10.0
2020-Jan-18 00:02 176 0 gusting 4 10.0
2020-Jan-17 23:57 170 0 gusting 4 10.0
2020-Jan-17 23:52 171 0 gusting 2 10.6
2020-Jan-17 23:47 110 1 gusting 2 10.6
2020-Jan-17 23:42 089 1 gusting 5 10.6
2020-Jan-17 23:37 097 1 gusting 4 10.6
2020-Jan-17 23:32 095 0 gusting 2 10.6
2020-Jan-17 23:27 095 2 gusting 4 10.6
2020-Jan-17 23:22 002 1 gusting 4 11.1
2020-Jan-17 23:17 087 1 gusting 2 11.1
2020-Jan-17 23:12 359 1 gusting 4 11.1
2020-Jan-17 23:07 105 2 gusting 4 11.1
2020-Jan-17 23:02 092 3 gusting 6 11.1
2020-Jan-17 22:57 098 1 gusting 5 11.7
2020-Jan-17 22:52 012 2 gusting 5 11.7
2020-Jan-17 22:47 091 2 gusting 4 11.7
2020-Jan-17 22:42 141 1 gusting 5 11.7
2020-Jan-17 22:37 102 2 gusting 4 12.2
2020-Jan-17 22:32 125 1 gusting 4 12.2
2020-Jan-17 22:27 090 2 gusting 5 12.2
2020-Jan-17 22:22 104 4 gusting 6 12.2
2020-Jan-17 22:17 090 4 gusting 6 12.8
2020-Jan-17 22:12 085 3 gusting 5 12.8
2020-Jan-17 22:07 090 4 gusting 6 12.8
2020-Jan-17 22:02 082 4 gusting 6 13.3
2020-Jan-17 21:57 270 4 gusting 6 13.3
2020-Jan-17 21:52 057 4 gusting 6 13.3
2020-Jan-17 21:47 095 4 gusting 6 13.3
2020-Jan-17 21:42 113 3 gusting 6 13.3
2020-Jan-17 21:37 075 4 gusting 6 13.3
2020-Jan-17 21:32 068 3 gusting 6 13.3
2020-Jan-17 21:27 135 4 gusting 8 13.3
2020-Jan-17 21:22 076 5 gusting 6 13.9
2020-Jan-17 21:17 105 4 gusting 6 13.9
2020-Jan-17 21:12 090 5 gusting 7 13.9
2020-Jan-17 21:07 090 3 gusting 7 14.4
2020-Jan-17 21:02 112 4 gusting 8 14.4
2020-Jan-17 20:57 098 7 gusting 8 14.4
2020-Jan-17 20:52 082 5 gusting 7 14.4
2020-Jan-17 20:47 119 4 gusting 6 14.4
2020-Jan-17 20:42 080 5 gusting 8 14.4
2020-Jan-17 20:37 105 6 gusting 7 14.4
2020-Jan-17 20:32 057 6 gusting 8 14.4
2020-Jan-17 20:27 090 6 gusting 8 15.0
2020-Jan-17 20:22 089 2 gusting 8 15.6
2020-Jan-17 20:17 103 5 gusting 8 15.6
2020-Jan-17 20:12 093 5 gusting 7 15.6
2020-Jan-17 20:07 056 4 gusting 6 15.6
2020-Jan-17 20:02 095 2 gusting 5 15.6
2020-Jan-17 19:57 098 3 gusting 11 15.6
2020-Jan-17 19:52 084 4 gusting 11 15.6
2020-Jan-17 19:47 060 3 gusting 6 15.6
2020-Jan-17 19:42 093 5 gusting 8 15.6
2020-Jan-17 19:37 086 5 gusting 8 15.6
2020-Jan-17 19:32 048 5 gusting 8 15.6
2020-Jan-17 19:27 112 5 gusting 6 15.6
2020-Jan-17 19:22 095 6 gusting 7 16.1
2020-Jan-17 19:17 090 4 gusting 6 16.1
2020-Jan-17 19:12 100 5 gusting 7 16.1
2020-Jan-17 19:07 056 6 gusting 7 16.1
2020-Jan-17 19:02 071 5 gusting 7 16.1
2020-Jan-17 18:57 081 4 gusting 6 16.1
2020-Jan-17 18:52 083 4 gusting 6 16.7
2020-Jan-17 18:47 107 4 gusting 6 16.7
2020-Jan-17 18:42 108 4 gusting 6 16.1
2020-Jan-17 18:37 112 7 gusting 10 16.7
2020-Jan-17 18:32 109 5 gusting 8 16.7
2020-Jan-17 18:27 170 5 gusting 6 16.7
2020-Jan-17 18:22 078 5 gusting 7 16.7
2020-Jan-17 18:17 122 6 gusting 8 16.7
2020-Jan-17 18:12 102 5 gusting 5 17.2
2020-Jan-17 18:07 023 5 gusting 6 17.2
2020-Jan-17 18:02 047 4 gusting 6 17.2
2020-Jan-17 17:57 004 5 gusting 8 16.7
2020-Jan-17 17:52 104 4 gusting 6 16.7
2020-Jan-17 17:47 032 4 gusting 6 17.2
2020-Jan-17 17:42 16.7
2020-Jan-17 17:37 116 6 gusting 11 17.2
2020-Jan-17 17:32 053 5 gusting 8 17.2
2020-Jan-17 17:27 112 4 gusting 6 17.2
2020-Jan-17 17:22 008 5 gusting 7 17.2
2020-Jan-17 17:17 105 4 gusting 7 17.2
2020-Jan-17 17:12 116 4 gusting 10 17.2
2020-Jan-17 17:07 066 4 gusting 8 17.2
2020-Jan-17 17:02 112 6 gusting 10 17.2
2020-Jan-17 16:57 087 4 gusting 5 17.2
2020-Jan-17 16:52 099 6 gusting 11 17.2
2020-Jan-17 16:47 096 8 gusting 11 17.2
2020-Jan-17 16:42 080 6 gusting 8 17.2
2020-Jan-17 16:37 126 5 gusting 8 17.2
2020-Jan-17 16:32 104 7 gusting 10 17.2
2020-Jan-17 16:27 102 5 gusting 6 17.2
2020-Jan-17 16:22 093 3 gusting 6 16.7
2020-Jan-17 16:17 151 3 gusting 6 17.2
2020-Jan-17 16:12 085 4 gusting 8 17.2
2020-Jan-17 16:07 143 4 gusting 6 16.7
2020-Jan-17 16:02 112 4 gusting 8 16.7
2020-Jan-17 15:57 090 6 gusting 10 16.7
2020-Jan-17 15:52 101 6 gusting 8 16.7
2020-Jan-17 15:47 052 4 gusting 5 16.7
2020-Jan-17 15:42 093 6 gusting 7 16.7
2020-Jan-17 15:37 046 5 gusting 7 16.7
2020-Jan-17 15:32 099 6 gusting 7 16.1
2020-Jan-17 15:27 057 4 gusting 6 16.1
2020-Jan-17 15:22 065 5 gusting 6 16.7
2020-Jan-17 15:17 045 1 gusting 5 16.1
2020-Jan-17 15:12 102 3 gusting 5 15.6
2020-Jan-17 15:07 315 5 gusting 6 15.6
2020-Jan-17 15:02 083 2 gusting 5 15.0
2020-Jan-17 14:57 091 3 gusting 4 15.0
2020-Jan-17 14:52 173 2 gusting 5 14.4
2020-Jan-17 14:47 244 2 gusting 5 14.4
2020-Jan-17 14:42 101 1 gusting 4 14.4
2020-Jan-17 14:37 242 2 gusting 5 13.9
2020-Jan-17 14:32 093 2 gusting 4 13.3
2020-Jan-17 14:27 138 2 gusting 5 13.3
2020-Jan-17 14:22 004 2 gusting 4 13.3
2020-Jan-17 14:17 195 1 gusting 4 13.3
2020-Jan-17 14:12 030 2 gusting 4 13.3
2020-Jan-17 14:07 039 3 gusting 5 12.8
2020-Jan-17 14:02 128 1 gusting 4 12.2
2020-Jan-17 13:57 202 1 gusting 4 12.2
2020-Jan-17 13:52 146 1 gusting 4 12.2
2020-Jan-17 13:47 182 1 gusting 2 11.7
2020-Jan-17 13:42 033 1 gusting 2 11.7
2020-Jan-17 13:37 151 1 gusting 2 11.7
2020-Jan-17 13:32 185 1 gusting 4 11.1
2020-Jan-17 13:27 112 3 gusting 5 11.1
2020-Jan-17 13:22 111 1 gusting 2 10.6
2020-Jan-17 13:17 084 1 gusting 2 10.6
2020-Jan-17 13:12 289 0 gusting 1 10.0
2020-Jan-17 13:07 012 1 gusting 4 9.4
2020-Jan-17 13:02 292 0 gusting 1 8.9
2020-Jan-17 12:57 249 0 gusting 1 8.3
2020-Jan-17 12:52 353 0 gusting 1 7.8
2020-Jan-17 12:47 093 7.8
2020-Jan-17 12:42 328 7.2
2020-Jan-17 12:37 073 7.2
2020-Jan-17 12:32 292 0 gusting 0 7.2
2020-Jan-17 12:27 228 7.2
2020-Jan-17 12:22 020 6.7
2020-Jan-17 12:17 032 7.2
2020-Jan-17 12:12 244 6.7
2020-Jan-17 12:07 338 0 gusting 0 6.7
2020-Jan-17 12:02 359 0 gusting 2 6.7
2020-Jan-17 11:57 270 0 gusting 1 6.7
2020-Jan-17 11:52 349 6.7
2020-Jan-17 11:47 263 0 gusting 0 6.7
2020-Jan-17 11:42 177 6.7
2020-Jan-17 11:37 076 6.7
2020-Jan-17 11:32 303 6.7
2020-Jan-17 11:27 337 6.7
2020-Jan-17 11:22 338 6.7
2020-Jan-17 11:17 348 6.7
2020-Jan-17 11:12 304 7.2
2020-Jan-17 11:07 315 7.2
2020-Jan-17 11:02 325 7.2
2020-Jan-17 10:57 315 7.2
2020-Jan-17 10:52 328 7.8
2020-Jan-17 10:47 305 7.8
2020-Jan-17 10:42 238 7.8
2020-Jan-17 10:37 302 7.8
2020-Jan-17 10:32 315 7.8
2020-Jan-17 10:27 7.8
2020-Jan-17 10:22 292 8.3
2020-Jan-17 10:17 338 8.3
2020-Jan-17 10:12 292 8.3
2020-Jan-17 10:07 301 8.3
2020-Jan-17 10:02 305 8.3
2020-Jan-17 09:57 306 8.9
2020-Jan-17 09:52 308 8.9
2020-Jan-17 09:47 261 8.9
2020-Jan-17 09:42 250 8.9
2020-Jan-17 09:37 270 9.4
2020-Jan-17 09:32 290 9.4
2020-Jan-17 09:27 022 9.4
2020-Jan-17 09:22 279 9.4
2020-Jan-17 09:17 307 9.4
2020-Jan-17 09:12 292 10.0
2020-Jan-17 09:07 225 10.0
2020-Jan-17 09:02 067 0 gusting 1 10.0
2020-Jan-17 08:57 032 0 gusting 0 10.0
2020-Jan-17 08:52 090 1 gusting 2 10.0
2020-Jan-17 08:47 258 0 gusting 1 10.0
2020-Jan-17 08:42 130 10.0
2020-Jan-17 08:37 168 10.0
2020-Jan-17 08:27 148 10.0
2020-Jan-17 08:22 182 0 gusting 2 10.0
2020-Jan-17 08:17 087 0 gusting 2 9.4
2020-Jan-17 08:12 112 0 gusting 1 10.0
2020-Jan-17 08:07 288 0 gusting 1 9.4
2020-Jan-17 08:02 331 9.4
2020-Jan-17 07:57 020 9.4
2020-Jan-17 07:52 286 9.4
2020-Jan-17 07:47 160 0 gusting 1 9.4
2020-Jan-17 07:42 333 9.4
2020-Jan-17 07:37 261 0 gusting 4 9.4
2020-Jan-17 07:32 228 8.9
2020-Jan-17 07:27 111 8.9
2020-Jan-17 07:22 327 8.9
2020-Jan-17 07:17 080 8.9
2020-Jan-17 07:12 004 8.9
2020-Jan-17 07:07 090 9.4
2020-Jan-17 07:02 103 9.4
2020-Jan-17 06:57 338 9.4
2020-Jan-17 06:52 292 10.0
2020-Jan-17 06:47 292 10.0
2020-Jan-17 06:42 10.0
2020-Jan-17 06:37 292 10.0
2020-Jan-17 06:32 045 10.6
2020-Jan-17 06:27 315 10.6
2020-Jan-17 06:22 301 10.6
2020-Jan-17 06:17 292 10.6
2020-Jan-17 06:12 270 10.6
2020-Jan-17 06:07 090 11.1
2020-Jan-17 06:02 315 11.1
2020-Jan-17 05:57 328 11.1
2020-Jan-17 05:52 068 11.1
2020-Jan-17 05:47 328 11.7
2020-Jan-17 05:42 333 11.7
2020-Jan-17 05:37 292 11.7
2020-Jan-17 05:32 292 11.7
2020-Jan-17 05:27 315 11.7
2020-Jan-17 05:22 280 12.2
2020-Jan-17 05:17 341 12.2
2020-Jan-17 05:12 305 12.2
2020-Jan-17 05:08 292 12.2
2020-Jan-17 05:02 315 12.2
2020-Jan-17 04:57 185 12.2
2020-Jan-17 04:52 315 12.8
2020-Jan-17 04:47 305 12.8
2020-Jan-17 04:42 180 12.8
2020-Jan-17 04:37 303 12.8
2020-Jan-17 04:32 009 12.8
2020-Jan-17 04:27 054 12.8
2020-Jan-17 04:22 287 12.8
2020-Jan-17 04:17 077 13.3
2020-Jan-17 04:12 331 13.3
2020-Jan-17 04:07 328 13.3
2020-Jan-17 04:02 069 13.3
2020-Jan-17 03:57 043 13.3
2020-Jan-17 03:52 006 13.3
2020-Jan-17 03:47 158 13.9
2020-Jan-17 03:42 282 13.9
2020-Jan-17 03:37 022 13.9
2020-Jan-17 03:32 280 13.9
2020-Jan-17 03:27 339 14.4
2020-Jan-17 03:22 318 14.4
2020-Jan-17 03:17 282 14.4
2020-Jan-17 03:12 310 14.4
2020-Jan-17 03:07 025 14.4
2020-Jan-17 03:02 202 15.0
2020-Jan-17 02:57 068 15.0
2020-Jan-17 02:52 313 15.0
2020-Jan-17 02:47 15.0
2020-Jan-17 02:42 328 15.6
2020-Jan-17 02:37 348 15.6
2020-Jan-17 02:32 185 15.6
2020-Jan-17 02:27 256 15.6
2020-Jan-17 02:22 340 16.1
2020-Jan-17 02:17 241 0 gusting 0 16.1
2020-Jan-17 02:12 272 0 gusting 1 16.1
2020-Jan-17 02:07 009 16.1
2020-Jan-17 02:02 043 1 gusting 1 16.1
2020-Jan-17 01:57 341 16.1
2020-Jan-17 01:52 292 16.1
2020-Jan-17 01:47 168 16.1
2020-Jan-17 01:42 319 16.1
2020-Jan-17 01:37 280 16.1
2020-Jan-17 01:32 224 16.1
2020-Jan-17 01:27 206 16.7
2020-Jan-17 01:22 225 16.7
2020-Jan-17 01:17 270 16.7
2020-Jan-17 01:12 315 16.7
2020-Jan-17 01:07 023 16.7
2020-Jan-17 01:02 068 17.2
2020-Jan-17 00:57 090 17.2
2020-Jan-17 00:52 045 17.2
2020-Jan-17 00:47 303 17.2
2020-Jan-17 00:42 292 17.8
2020-Jan-17 00:37 270 17.8
2020-Jan-17 00:32 292 17.8
2020-Jan-17 00:27 270 17.8
2020-Jan-17 00:22 292 18.3
2020-Jan-17 00:17 270 18.3
2020-Jan-17 00:12 239 18.3
2020-Jan-17 00:07 225 18.3
2020-Jan-17 00:02 270 18.9
2020-Jan-16 23:57 338 18.9
2020-Jan-16 23:52 350 18.9
2020-Jan-16 23:47 282 19.4
2020-Jan-16 23:42 045 19.4
2020-Jan-16 23:37 292 19.4
2020-Jan-16 23:32 292 19.4
2020-Jan-16 23:27 071 20.0
2020-Jan-16 23:22 292 20.0
2020-Jan-16 23:17 270 20.0
2020-Jan-16 23:12 284 20.6
2020-Jan-16 23:07 270 20.6
2020-Jan-16 23:02 099 21.1
2020-Jan-16 22:57 292 21.7
2020-Jan-16 22:52 168 21.7
2020-Jan-16 22:47 101 0 gusting 1 22.2
2020-Jan-16 22:42 058 22.8
2020-Jan-16 22:37 189 22.8
2020-Jan-16 22:32 270 23.3
2020-Jan-16 22:27 067 23.9
2020-Jan-16 22:22 136 0 gusting 4 23.9
2020-Jan-16 22:17 146 2 gusting 5 24.4
2020-Jan-16 22:12 218 0 gusting 1 25.0
2020-Jan-16 22:07 259 2 gusting 4 25.6
2020-Jan-16 22:02 270 0 gusting 5 25.6
2020-Jan-16 21:57 246 0 gusting 6 26.1
2020-Jan-16 21:52 037 0 gusting 6 25.0
2020-Jan-16 21:47 247 4 gusting 5 25.6
2020-Jan-16 21:42 303 1 gusting 5 25.6
2020-Jan-16 21:37 236 2 gusting 5 26.1
2020-Jan-16 21:32 137 2 gusting 4 26.1
2020-Jan-16 21:27 204 2 gusting 4 26.1
2020-Jan-16 21:22 311 1 gusting 4 26.7
2020-Jan-16 21:17 192 1 gusting 2 26.7
2020-Jan-16 21:12 248 2 gusting 4 26.7
2020-Jan-16 21:07 045 1 gusting 4 26.1
2020-Jan-16 21:02 206 2 gusting 4 26.7
2020-Jan-16 20:57 338 1 gusting 5 27.2
2020-Jan-16 20:52 248 2 gusting 5 26.7
2020-Jan-16 20:47 235 3 gusting 6 27.2
2020-Jan-16 20:42 225 3 gusting 6 26.7
2020-Jan-16 20:37 239 2 gusting 6 26.7
2020-Jan-16 20:32 279 4 gusting 5 27.2
2020-Jan-16 20:27 248 4 gusting 6 27.2
2020-Jan-16 20:22 270 4 gusting 7 27.8
2020-Jan-16 20:17 225 1 gusting 5 27.2
2020-Jan-16 20:12 245 2 gusting 6 27.2
2020-Jan-16 20:07 292 4 gusting 8 27.8
2020-Jan-16 20:02 262 4 gusting 8 27.8